createdAt,value
2022-07-28T00:00:45.365Z,97263.72
2022-07-28T00:03:12.645Z,97265.69
2022-07-28T00:05:39.477Z,97269.69
2022-07-28T00:08:06.226Z,97270.38
2022-07-28T00:10:34.135Z,97266.78
2022-07-28T00:13:00.948Z,97269.13
2022-07-28T00:15:27.924Z,97265.59
2022-07-28T00:17:54.813Z,97268.03
2022-07-28T00:20:21.566Z,97274.91
2022-07-28T00:22:48.356Z,97281.69
2022-07-28T00:25:15.353Z,97280.13
2022-07-28T00:27:42.248Z,97277.44
2022-07-28T00:30:10.176Z,97281.41
2022-07-28T00:32:37.926Z,97279.25
2022-07-28T00:35:08.328Z,97279.56
2022-07-28T00:37:35.702Z,97273.25
2022-07-28T00:40:08.295Z,97282.81
2022-07-28T00:42:35.030Z,97273.59
2022-07-28T00:45:01.846Z,97276.13
2022-07-28T00:47:33.503Z,97279.00
2022-07-28T00:50:02.102Z,97285.81
2022-07-28T00:52:29.106Z,97280.88
2022-07-28T00:54:58.071Z,97292.34
2022-07-28T00:57:24.978Z,97294.03
2022-07-28T00:59:52.080Z,97288.50
2022-07-28T01:02:19.453Z,97277.66
2022-07-28T01:04:46.840Z,97278.22
2022-07-28T01:07:28.655Z,97279.75
2022-07-28T01:10:05.474Z,97278.19
2022-07-28T01:13:09.024Z,97285.13
2022-07-28T01:15:40.978Z,97286.13
2022-07-28T01:18:15.885Z,97283.28
2022-07-28T01:20:48.235Z,97265.34
2022-07-28T01:23:20.993Z,97271.00
2022-07-28T01:26:10.332Z,97266.50
2022-07-28T01:29:18.543Z,97265.88
2022-07-28T01:31:51.351Z,97276.47
2022-07-28T01:34:23.652Z,97282.41
2022-07-28T01:36:58.543Z,97278.75
2022-07-28T01:39:31.029Z,97285.84
2022-07-28T01:41:58.686Z,97289.03
2022-07-28T01:44:28.287Z,97287.34
2022-07-28T01:46:57.580Z,97285.09
2022-07-28T01:49:27.408Z,97279.00
2022-07-28T01:51:56.655Z,97278.88
2022-07-28T01:54:27.376Z,97275.13
2022-07-28T01:56:56.071Z,97267.78
2022-07-28T01:59:24.778Z,97277.91
2022-07-28T02:01:53.271Z,97283.19
2022-07-28T02:04:23.882Z,97281.63
2022-07-28T02:06:52.835Z,97279.38
2022-07-28T02:09:22.596Z,97284.75
2022-07-28T02:11:53.156Z,97280.22
2022-07-28T02:14:23.518Z,97288.84
2022-07-28T02:16:58.807Z,97300.03
2022-07-28T02:19:27.862Z,97294.22
2022-07-28T02:21:55.645Z,97300.31
2022-07-28T02:24:28.307Z,97298.19
2022-07-28T02:27:06.117Z,97300.88
2022-07-28T02:29:50.795Z,97303.28
2022-07-28T02:32:45.069Z,97301.59
2022-07-28T02:36:07.424Z,97294.09
2022-07-28T02:38:45.170Z,97305.78
2022-07-28T02:41:18.938Z,97313.81
2022-07-28T02:43:49.003Z,97315.09
2022-07-28T02:46:22.198Z,97316.41
2022-07-28T02:48:52.877Z,97317.69
2022-07-28T02:51:23.900Z,97311.94
2022-07-28T02:53:53.263Z,97313.13
2022-07-28T02:56:21.542Z,97317.50
2022-07-28T02:58:48.798Z,97316.69
2022-07-28T03:01:19.254Z,97314.88
2022-07-28T03:03:50.477Z,97327.16
2022-07-28T03:06:28.355Z,97329.25
2022-07-28T03:08:57.650Z,97319.31
2022-07-28T03:11:24.878Z,97327.56
2022-07-28T03:13:51.572Z,97319.31
2022-07-28T03:16:18.470Z,97322.38
2022-07-28T03:18:45.364Z,97331.72
2022-07-28T03:21:12.064Z,97340.22
2022-07-28T03:23:42.304Z,97341.28
2022-07-28T03:26:41.346Z,97351.09
2022-07-28T03:29:12.040Z,97352.69
2022-07-28T03:31:41.443Z,97349.66
2022-07-28T03:34:11.398Z,97354.00
2022-07-28T03:36:43.979Z,97355.31
2022-07-28T03:39:12.249Z,97357.09
2022-07-28T03:41:42.321Z,97366.09
2022-07-28T03:44:12.532Z,97367.47
2022-07-28T03:46:46.563Z,97363.09
2022-07-28T03:49:13.422Z,97363.75
2022-07-28T03:51:40.027Z,97366.50
2022-07-28T03:54:06.617Z,97363.63
2022-07-28T03:56:33.146Z,97372.13
2022-07-28T03:59:07.262Z,97363.09
2022-07-28T04:01:33.878Z,97359.94
2022-07-28T04:04:00.469Z,97361.78
2022-07-28T04:06:27.049Z,97367.53
2022-07-28T04:09:03.852Z,97374.41
2022-07-28T04:11:30.429Z,97367.53
2022-07-28T04:13:57.098Z,97367.47
2022-07-28T04:16:24.333Z,97370.09
2022-07-28T04:18:50.911Z,97373.81
2022-07-28T04:21:17.865Z,97372.38
2022-07-28T04:23:44.546Z,97368.06
2022-07-28T04:26:11.238Z,97367.50
2022-07-28T04:28:37.823Z,97366.22
2022-07-28T04:31:04.501Z,97362.81
2022-07-28T04:33:31.248Z,97372.38
2022-07-28T04:35:57.910Z,97372.84
2022-07-28T04:38:24.529Z,97369.56
2022-07-28T04:40:51.225Z,97367.00
2022-07-28T04:43:18.111Z,97388.22
2022-07-28T04:45:53.483Z,97375.09
2022-07-28T04:48:21.259Z,97369.88
2022-07-28T04:50:47.873Z,97374.03
2022-07-28T04:53:14.396Z,97379.66
2022-07-28T04:55:41.117Z,97376.97
2022-07-28T04:58:09.463Z,97370.47
2022-07-28T05:00:36.320Z,97365.41
2022-07-28T05:03:04.328Z,97360.06
2022-07-28T05:05:30.992Z,97363.72
2022-07-28T05:08:00.130Z,97364.03
2022-07-28T05:10:27.021Z,97373.13
2022-07-28T05:12:54.644Z,97375.50
2022-07-28T05:15:21.281Z,97378.63
2022-07-28T05:17:49.872Z,97379.91
2022-07-28T05:20:17.604Z,97378.47
2022-07-28T05:22:45.002Z,97384.69
2022-07-28T05:25:15.717Z,97389.22
2022-07-28T05:27:42.525Z,97391.81
2022-07-28T05:30:09.583Z,97391.22
2022-07-28T05:32:36.208Z,97396.09
2022-07-28T05:35:02.920Z,97402.78
2022-07-28T05:37:29.526Z,97403.63
2022-07-28T05:39:56.081Z,97403.94
2022-07-28T05:42:22.697Z,97406.72
2022-07-28T05:44:49.351Z,97416.09
2022-07-28T05:47:16.136Z,97410.34
2022-07-28T05:49:42.737Z,97409.28
2022-07-28T05:52:09.391Z,97407.28
2022-07-28T05:54:35.992Z,97405.41
2022-07-28T05:57:02.617Z,97398.81
2022-07-28T05:59:29.153Z,97399.22
2022-07-28T06:01:55.919Z,97395.00
2022-07-28T06:04:25.550Z,97394.66
2022-07-28T06:06:53.984Z,97394.78
2022-07-28T06:09:21.096Z,97398.03
2022-07-28T06:11:47.730Z,97404.75
2022-07-28T06:14:14.734Z,97396.88
2022-07-28T06:16:42.340Z,97400.50
2022-07-28T06:19:08.942Z,97392.91
2022-07-28T06:21:35.532Z,97401.28
2022-07-28T06:24:02.140Z,97402.16
2022-07-28T06:26:28.738Z,97398.16
2022-07-28T06:28:55.295Z,97402.31
2022-07-28T06:31:21.982Z,97408.59
2022-07-28T06:33:49.880Z,97409.22
2022-07-28T06:36:16.377Z,97405.66
2022-07-28T06:38:43.101Z,97410.16
2022-07-28T06:41:09.725Z,97402.88
2022-07-28T06:43:39.119Z,97408.91
2022-07-28T06:46:05.915Z,97408.59
2022-07-28T06:48:32.647Z,97412.19
2022-07-28T06:51:01.313Z,97406.94
2022-07-28T06:53:33.763Z,97405.88
2022-07-28T06:56:00.759Z,97407.66
2022-07-28T06:58:27.357Z,97413.31
2022-07-28T07:00:55.009Z,97410.88
2022-07-28T07:03:21.581Z,97420.22
2022-07-28T07:05:49.050Z,97412.81
2022-07-28T07:08:20.881Z,97405.78
2022-07-28T07:10:47.715Z,97419.31
2022-07-28T07:13:14.276Z,97417.13
2022-07-28T07:15:40.920Z,97415.28
2022-07-28T07:18:07.648Z,97414.94
2022-07-28T07:20:34.216Z,97412.56
2022-07-28T07:23:00.847Z,97415.06
2022-07-28T07:25:27.629Z,97421.19
2022-07-28T07:27:54.270Z,97421.72
2022-07-28T07:30:20.839Z,97423.94
2022-07-28T07:35:03.698Z,97424.56
2022-07-28T07:37:32.674Z,97418.63
2022-07-28T07:40:04.313Z,97418.41
2022-07-28T07:42:31.065Z,97422.69
2022-07-28T07:44:57.943Z,97416.91
2022-07-28T07:47:24.553Z,97418.84
2022-07-28T07:49:51.776Z,97418.84
2022-07-28T07:52:18.659Z,97422.31
2022-07-28T07:54:45.732Z,97431.75
2022-07-28T07:57:12.530Z,97428.28
2022-07-28T07:59:39.215Z,97434.88
2022-07-28T08:02:06.525Z,97423.41
2022-07-28T08:04:37.162Z,97425.50
2022-07-28T08:07:05.547Z,97422.81
2022-07-28T08:09:32.765Z,97426.09
2022-07-28T08:12:00.096Z,97427.84
2022-07-28T08:14:27.015Z,97424.50
2022-07-28T08:16:56.574Z,97418.63
2022-07-28T08:19:23.799Z,97426.69
2022-07-28T08:21:51.178Z,97429.31
2022-07-28T08:24:32.864Z,97436.19
2022-07-28T08:27:04.192Z,97435.97
2022-07-28T08:29:31.346Z,97435.97
2022-07-28T08:31:58.187Z,97426.13
2022-07-28T08:34:28.463Z,97434.38
2022-07-28T08:37:00.096Z,97438.13
2022-07-28T08:39:26.894Z,97436.72
2022-07-28T08:42:05.174Z,97443.66
2022-07-28T08:44:41.612Z,97446.94
2022-07-28T08:47:11.244Z,97452.09
2022-07-28T08:49:42.558Z,97459.88
2022-07-28T08:52:14.164Z,97462.00
2022-07-28T08:54:46.366Z,97457.97
2022-07-28T08:57:30.958Z,97470.25
2022-07-28T08:59:58.964Z,97465.75
2022-07-28T09:02:27.264Z,97464.47
2022-07-28T09:04:56.049Z,97463.97
2022-07-28T09:07:24.001Z,97464.53
2022-07-28T09:09:51.170Z,97461.44
2022-07-28T09:12:27.309Z,97465.88
2022-07-28T09:14:54.649Z,97465.66
2022-07-28T09:17:21.837Z,97465.66
2022-07-28T09:19:48.916Z,97469.53
2022-07-28T09:22:15.924Z,97472.03
2022-07-28T09:24:46.685Z,97465.97
2022-07-28T09:27:15.890Z,97456.97
2022-07-28T09:29:47.222Z,97459.59
2022-07-28T09:32:16.366Z,97450.50
2022-07-28T09:34:45.817Z,97455.09
2022-07-28T09:37:27.066Z,97453.69
2022-07-28T09:40:00.267Z,97453.09
2022-07-28T09:42:46.138Z,97454.94
2022-07-28T09:45:22.887Z,97451.94
2022-07-28T09:47:52.678Z,97465.53
2022-07-28T09:50:27.875Z,97462.63
2022-07-28T09:52:54.811Z,97466.38
2022-07-28T09:55:22.043Z,97460.84
2022-07-28T09:57:50.881Z,97466.63
2022-07-28T10:00:28.578Z,97469.81
2022-07-28T10:02:55.686Z,97465.94
2022-07-28T10:05:22.850Z,97460.03
2022-07-28T10:07:55.233Z,97452.34
2022-07-28T10:10:22.480Z,97453.56
2022-07-28T10:12:52.083Z,97449.88
2022-07-28T10:15:45.452Z,97455.47
2022-07-28T10:18:17.851Z,97447.50
2022-07-28T10:20:45.732Z,97448.91
2022-07-28T10:23:19.120Z,97455.00
2022-07-28T10:25:46.519Z,97451.47
2022-07-28T10:28:16.827Z,97446.97
2022-07-28T10:30:45.168Z,97449.03
2022-07-28T10:33:19.698Z,97453.94
2022-07-28T10:35:55.206Z,97441.97
2022-07-28T10:38:26.424Z,97452.38
2022-07-28T10:40:58.246Z,97456.03
2022-07-28T10:43:28.240Z,97443.28
2022-07-28T10:46:05.543Z,97448.88
2022-07-28T10:48:33.741Z,97445.97
2022-07-28T10:51:01.591Z,97446.41
2022-07-28T10:53:39.580Z,97439.19
2022-07-28T10:56:15.811Z,97443.25
2022-07-28T10:59:02.775Z,97437.84
2022-07-28T11:01:50.333Z,97430.63
2022-07-28T11:04:48.209Z,97432.13
2022-07-28T11:07:17.169Z,97427.53
2022-07-28T11:09:45.684Z,97431.91
2022-07-28T11:12:15.394Z,97419.38
2022-07-28T11:14:43.580Z,97426.53
2022-07-28T11:17:11.337Z,97425.28
2022-07-28T11:19:46.745Z,97419.94
2022-07-28T11:22:32.178Z,97428.56
2022-07-28T11:25:20.775Z,97421.03
2022-07-28T11:27:51.346Z,97422.03
2022-07-28T11:30:36.097Z,97422.75
2022-07-28T11:33:04.897Z,97414.00
2022-07-28T11:35:38.621Z,97415.81
2022-07-28T11:38:05.370Z,97413.16
2022-07-28T11:40:39.361Z,97415.34
2022-07-28T11:43:22.497Z,97416.69
2022-07-28T11:46:15.362Z,97417.53
2022-07-28T11:48:46.811Z,97414.06
2022-07-28T11:51:14.220Z,97410.78
2022-07-28T11:53:43.492Z,97403.44
2022-07-28T11:56:22.777Z,97408.72
2022-07-28T11:58:57.502Z,97408.72
2022-07-28T12:01:24.230Z,97412.91
2022-07-28T12:03:55.755Z,97402.44
2022-07-28T12:06:35.407Z,97402.88
2022-07-28T12:09:07.384Z,97400.69
2022-07-28T12:11:41.147Z,97400.53
2022-07-28T12:14:08.026Z,97397.63
2022-07-28T12:16:40.039Z,97393.22
2022-07-28T12:19:08.396Z,97396.16
2022-07-28T12:21:47.710Z,97383.53
2022-07-28T12:24:44.829Z,97391.72
2022-07-28T12:27:16.720Z,97391.31
2022-07-28T12:29:44.000Z,97391.31
2022-07-28T12:32:20.421Z,97395.13
2022-07-28T12:34:48.093Z,97387.59
2022-07-28T12:37:15.056Z,97396.19
2022-07-28T12:39:43.932Z,97383.97
2022-07-28T12:42:12.952Z,97381.69
2022-07-28T12:44:46.487Z,97382.72
2022-07-28T12:47:16.203Z,97383.38
2022-07-28T12:49:45.168Z,97377.50
2022-07-28T12:52:35.557Z,97385.47
2022-07-28T12:55:02.540Z,97375.38
2022-07-28T12:57:48.016Z,97382.28
2022-07-28T13:00:23.366Z,97374.50
2022-07-28T13:02:52.202Z,97373.91
2022-07-28T13:05:33.442Z,97368.88
2022-07-28T13:08:05.830Z,97372.41
2022-07-28T13:10:33.175Z,97372.63
2022-07-28T13:13:05.355Z,97364.44
2022-07-28T13:15:32.593Z,97369.25
2022-07-28T13:17:59.836Z,97360.44
2022-07-28T13:20:27.198Z,97357.72
2022-07-28T13:22:55.164Z,97361.94
2022-07-28T13:25:45.747Z,97369.88
2022-07-28T13:28:30.761Z,97367.19
2022-07-28T13:30:57.502Z,97368.47
2022-07-28T13:33:26.883Z,97375.81
2022-07-28T13:35:55.745Z,97368.03
2022-07-28T13:38:24.076Z,97370.78
2022-07-28T13:40:54.609Z,97372.41
2022-07-28T13:43:21.378Z,97371.63
2022-07-28T13:45:48.360Z,97375.59
2022-07-28T13:48:15.824Z,97384.41
2022-07-28T13:50:42.640Z,97378.94
2022-07-28T13:53:09.343Z,97387.00
2022-07-28T13:55:37.311Z,97385.94
2022-07-28T13:58:08.868Z,97381.53
2022-07-28T14:00:36.331Z,97383.97
2022-07-28T14:03:04.460Z,97388.59
2022-07-28T14:05:35.989Z,97391.13
2022-07-28T14:08:02.979Z,97389.63
2022-07-28T14:10:32.300Z,97385.69
2022-07-28T14:12:59.446Z,97384.81
2022-07-28T14:15:29.166Z,97387.75
2022-07-28T14:17:56.250Z,97394.06
2022-07-28T14:20:23.225Z,97389.25
2022-07-28T14:22:50.869Z,97393.03
2022-07-28T14:25:49.098Z,97387.34
2022-07-28T14:28:24.274Z,97392.16
2022-07-28T14:30:51.099Z,97390.88
2022-07-28T14:33:18.164Z,97385.41
2022-07-28T14:35:45.099Z,97396.31
2022-07-28T14:38:51.631Z,97394.63
2022-07-28T14:41:01.244Z,97395.66
2022-07-28T14:43:28.207Z,97398.16
2022-07-28T14:46:13.322Z,97389.06
2022-07-28T14:48:42.315Z,97384.47
2022-07-28T14:51:11.697Z,97384.22
2022-07-28T14:53:43.336Z,97385.88
2022-07-28T14:56:19.050Z,97385.47
2022-07-28T14:58:45.867Z,97387.34
2022-07-28T15:01:13.035Z,97391.13
2022-07-28T15:03:43.092Z,97396.31
2022-07-28T15:06:10.861Z,97385.59
2022-07-28T15:08:42.716Z,97386.66
2022-07-28T15:11:09.710Z,97386.00
2022-07-28T15:13:36.514Z,97390.59
2022-07-28T15:16:03.430Z,97382.19
2022-07-28T15:18:30.652Z,97382.19
2022-07-28T15:20:57.500Z,97386.59
2022-07-28T15:23:25.629Z,97379.22
2022-07-28T15:25:53.362Z,97379.59
2022-07-28T15:28:20.571Z,97380.28
2022-07-28T15:30:52.701Z,97383.44
2022-07-28T15:33:22.304Z,97378.16
2022-07-28T15:35:58.387Z,97381.66
2022-07-28T15:38:31.829Z,97384.19
2022-07-28T15:40:59.243Z,97376.63
2022-07-28T15:43:26.611Z,97386.03
2022-07-28T15:45:55.679Z,97389.38
2022-07-28T15:48:23.229Z,97392.69
2022-07-28T15:50:50.048Z,97388.53
2022-07-28T15:53:17.041Z,97397.97
2022-07-28T15:55:48.927Z,97391.00
2022-07-28T15:58:17.473Z,97398.22
2022-07-28T16:00:44.748Z,97399.22
2022-07-28T16:03:11.866Z,97395.78
2022-07-28T16:05:38.662Z,97400.09
2022-07-28T16:08:05.611Z,97399.47
2022-07-28T16:10:32.489Z,97406.34
2022-07-28T16:12:59.429Z,97408.16
2022-07-28T16:15:27.154Z,97411.28
2022-07-28T16:17:56.739Z,97412.69
2022-07-28T16:20:24.604Z,97412.88
2022-07-28T16:22:51.530Z,97425.00
2022-07-28T16:25:20.463Z,97428.97
2022-07-28T16:27:49.326Z,97433.56
2022-07-28T16:30:17.394Z,97433.44
2022-07-28T16:32:44.274Z,97438.38
2022-07-28T16:35:11.134Z,97437.31
2022-07-28T16:37:40.263Z,97444.91
2022-07-28T16:40:09.426Z,97448.69
2022-07-28T16:42:36.543Z,97450.28
2022-07-28T16:45:04.470Z,97460.50
2022-07-28T16:47:31.164Z,97457.78
2022-07-28T16:49:57.941Z,97448.16
2022-07-28T16:52:24.722Z,97463.34
2022-07-28T16:54:51.572Z,97463.34
2022-07-28T16:57:18.297Z,97467.66
2022-07-28T16:59:47.960Z,97460.25
2022-07-28T17:02:15.571Z,97460.00
2022-07-28T17:04:42.476Z,97465.81
2022-07-28T17:07:09.297Z,97467.22
2022-07-28T17:09:35.982Z,97475.06
2022-07-28T17:12:02.748Z,97478.38
2022-07-28T17:14:29.608Z,97469.28
2022-07-28T17:16:56.403Z,97476.09
2022-07-28T17:19:23.081Z,97482.47
2022-07-28T17:21:49.815Z,97487.59
2022-07-28T17:24:16.893Z,97489.84
2022-07-28T17:29:31.532Z,97493.41
2022-07-28T17:31:58.213Z,97500.59
2022-07-28T17:34:24.976Z,97496.94
2022-07-28T17:36:52.622Z,97503.25
2022-07-28T17:39:20.017Z,97510.75
2022-07-28T17:41:48.089Z,97511.28
2022-07-28T17:44:15.275Z,97516.09
2022-07-28T17:46:42.688Z,97521.97
2022-07-28T17:49:09.611Z,97518.28
2022-07-28T17:51:37.545Z,97529.00
2022-07-28T17:54:04.366Z,97523.28
2022-07-28T17:56:32.406Z,97532.13
2022-07-28T17:58:59.933Z,97528.63
2022-07-28T18:01:26.671Z,97519.66
2022-07-28T18:03:56.661Z,97533.94
2022-07-28T18:06:28.543Z,97530.78
2022-07-28T18:08:55.332Z,97527.59
2022-07-28T18:11:21.974Z,97544.56
2022-07-28T18:14:03.778Z,97540.50
2022-07-28T18:16:34.309Z,97545.13
2022-07-28T18:19:02.193Z,97547.47
2022-07-28T18:21:29.424Z,97550.03
2022-07-28T18:23:57.381Z,97555.97
2022-07-28T18:26:24.258Z,97568.53
2022-07-28T18:28:52.702Z,97564.28
2022-07-28T18:31:26.811Z,97556.84
2022-07-28T18:33:53.796Z,97571.75
2022-07-28T18:36:20.640Z,97568.03
2022-07-28T18:38:48.879Z,97573.13
2022-07-28T18:41:17.613Z,97575.00
2022-07-28T18:43:46.827Z,97580.75
2022-07-28T18:46:14.290Z,97572.13
2022-07-28T18:48:41.213Z,97574.00
2022-07-28T18:51:07.991Z,97578.53
2022-07-28T18:53:36.049Z,97580.22
2022-07-28T18:56:02.780Z,97579.56
2022-07-28T18:58:29.795Z,97581.94
2022-07-28T19:00:56.754Z,97585.47
2022-07-28T19:03:23.560Z,97587.00
2022-07-28T19:05:50.984Z,97578.38
2022-07-28T19:08:17.695Z,97579.91
2022-07-28T19:10:44.500Z,97578.19
2022-07-28T19:13:13.219Z,97577.19
2022-07-28T19:15:41.509Z,97579.41
2022-07-28T19:18:10.671Z,97583.09
2022-07-28T19:20:44.072Z,97580.59
2022-07-28T19:23:11.016Z,97583.44
2022-07-28T19:25:39.414Z,97577.03
2022-07-28T19:28:06.485Z,97581.25
2022-07-28T19:30:33.415Z,97593.97
2022-07-28T19:33:00.430Z,97580.41
2022-07-28T19:35:27.164Z,97590.38
2022-07-28T19:37:56.568Z,97587.34
2022-07-28T19:40:25.288Z,97583.13
2022-07-28T19:42:52.201Z,97586.00
2022-07-28T19:45:18.972Z,97590.03
2022-07-28T19:47:46.013Z,97581.59
2022-07-28T19:50:16.885Z,97588.53
2022-07-28T19:52:43.693Z,97583.13
2022-07-28T19:55:22.261Z,97586.34
2022-07-28T19:57:50.401Z,97591.75
2022-07-28T20:00:20.469Z,97600.72
2022-07-28T20:02:47.222Z,97600.66
2022-07-28T20:05:13.928Z,97594.25
2022-07-28T20:07:40.596Z,97596.78
2022-07-28T20:10:07.526Z,97608.44
2022-07-28T20:12:36.668Z,97602.53
2022-07-28T20:15:07.514Z,97604.72
2022-07-28T20:17:39.551Z,97609.63
2022-07-28T20:20:11.799Z,97601.19
2022-07-28T20:22:39.770Z,97591.84
2022-07-28T20:25:09.312Z,97598.13
2022-07-28T20:27:40.631Z,97592.91
2022-07-28T20:30:12.939Z,97591.53
2022-07-28T20:32:42.142Z,97590.53
2022-07-28T20:35:09.986Z,97586.28
2022-07-28T20:37:37.914Z,97585.25
2022-07-28T20:40:08.552Z,97581.38
2022-07-28T20:42:36.765Z,97579.84
2022-07-28T20:45:04.690Z,97582.22
2022-07-28T20:47:32.568Z,97580.19
2022-07-28T20:49:59.914Z,97584.09
2022-07-28T20:52:26.718Z,97585.78
2022-07-28T20:54:54.874Z,97593.53
2022-07-28T20:57:22.656Z,97590.16
2022-07-28T20:59:51.188Z,97587.59
2022-07-28T21:02:19.655Z,97585.75
2022-07-28T21:04:48.239Z,97583.03
2022-07-28T21:07:59.622Z,97591.16
2022-07-28T21:10:08.324Z,97595.66
2022-07-28T21:12:37.340Z,97599.72
2022-07-28T21:15:09.397Z,97599.22
2022-07-28T21:17:36.751Z,97597.53
2022-07-28T21:20:05.133Z,97601.09
2022-07-28T21:22:31.981Z,97608.53
2022-07-28T21:24:59.301Z,97606.50
2022-07-28T21:27:26.093Z,97609.84
2022-07-28T21:32:19.013Z,97618.47
2022-07-28T21:34:45.784Z,97629.09
2022-07-28T21:37:13.186Z,97629.09
2022-07-28T21:39:40.375Z,97629.59
2022-07-28T21:42:08.860Z,97634.50
2022-07-28T21:44:37.436Z,97641.44
2022-07-28T21:47:04.748Z,97633.47
2022-07-28T21:49:32.480Z,97634.16
2022-07-28T21:51:59.830Z,97635.72
2022-07-28T21:54:27.305Z,97631.28
2022-07-28T21:56:54.192Z,97626.56
2022-07-28T21:59:21.038Z,97628.25
2022-07-28T22:01:47.954Z,97631.81
2022-07-28T22:04:15.163Z,97630.97
2022-07-28T22:06:46.091Z,97632.31
2022-07-28T22:09:14.141Z,97635.84
2022-07-28T22:11:40.855Z,97628.25
2022-07-28T22:14:07.597Z,97636.81
2022-07-28T22:16:34.388Z,97636.75
2022-07-28T22:19:01.265Z,97635.22
2022-07-28T22:21:27.951Z,97634.22
2022-07-28T22:23:54.718Z,97626.97
2022-07-28T22:26:21.903Z,97632.13
2022-07-28T22:28:48.679Z,97636.53
2022-07-28T22:31:15.465Z,97644.44
2022-07-28T22:33:42.220Z,97651.59
2022-07-28T22:36:09.185Z,97647.66
2022-07-28T22:38:36.451Z,97651.06
2022-07-28T22:41:03.410Z,97658.88
2022-07-28T22:43:34.687Z,97662.56
2022-07-28T22:46:01.460Z,97659.16
2022-07-28T22:48:28.561Z,97661.47
2022-07-28T22:50:55.630Z,97651.78
2022-07-28T22:53:22.421Z,97651.84
2022-07-28T22:55:49.395Z,97647.44
2022-07-28T22:58:16.215Z,97644.06
2022-07-28T23:00:43.662Z,97648.31
2022-07-28T23:03:13.197Z,97642.19
2022-07-28T23:05:42.806Z,97642.00
2022-07-28T23:08:10.530Z,97642.75
2022-07-28T23:10:38.010Z,97640.97
2022-07-28T23:13:05.089Z,97643.31
2022-07-28T23:15:39.977Z,97636.28
2022-07-28T23:18:07.782Z,97640.13
2022-07-28T23:20:36.820Z,97638.97
2022-07-28T23:23:03.567Z,97636.66
2022-07-28T23:25:30.381Z,97634.97
2022-07-28T23:27:58.035Z,97632.94
2022-07-28T23:30:24.843Z,97631.56
2022-07-28T23:32:53.065Z,97625.88
2022-07-28T23:35:19.937Z,97628.72
2022-07-28T23:37:46.844Z,97628.72
2022-07-28T23:40:14.142Z,97628.72
2022-07-28T23:42:41.163Z,97626.88
2022-07-28T23:45:08.917Z,97626.34
2022-07-28T23:47:35.807Z,97625.50
2022-07-28T23:50:04.364Z,97620.94
2022-07-28T23:52:31.137Z,97628.44
2022-07-28T23:54:58.081Z,97611.09
2022-07-28T23:57:24.907Z,97620.34
2022-07-28T23:59:58.052Z,97620.50
